Time;durP1;ratioP1;P1;durP2;ratioP2;P2;SDS_P1;SDS_P2;PMS_P1;PMS_P2;Temp;Humidity;BMP_temperature;BMP_pressure;BME280_temperature;BME280_humidity;BME280_pressure;Samples;Min_cycle;Max_cycle;Signal;HPM_P1;HPM_P2
2022/01/14 00:02:03;;;;;;;12.57;5.75;;;6.20;99.90;;;;;;5020510;28;20014;-53
2022/01/14 00:04:28;;;;;;;16.08;5.38;;;6.20;99.90;;;;;;5013843;28;20028;-56
2022/01/14 00:06:55;;;;;;;19.15;6.32;;;6.10;99.90;;;;;;5017244;28;20104;-54
2022/01/14 00:09:20;;;;;;;10.93;5.47;;;6.10;99.90;;;;;;5026740;28;20030;-51
2022/01/14 00:11:54;;;;;;;13.13;5.03;;;6.20;99.90;;;;;;5028971;28;20017;-56
2022/01/14 00:14:36;;;;;;;16.33;6.18;;;6.10;99.90;;;;;;5011590;28;20030;-54
2022/01/14 00:17:07;;;;;;;15.60;5.35;;;6.10;99.90;;;;;;5012784;28;20420;-53
2022/01/14 00:19:33;;;;;;;10.02;5.72;;;6.10;99.90;;;;;;5020529;28;20120;-54
2022/01/14 00:22:04;;;;;;;12.70;5.63;;;6.10;99.90;;;;;;5022450;28;20619;-53
2022/01/14 00:31:38;;;;;;;15.50;6.18;;;6.10;99.90;;;;;;5028366;28;20034;-52
2022/01/14 00:32:57;;;;;;;14.70;5.88;;;6.10;99.90;;;;;;5012329;28;20040;-52
2022/01/14 00:35:23;;;;;;;18.17;6.72;;;6.10;99.90;;;;;;5028841;28;20037;-53
2022/01/14 00:37:49;;;;;;;14.48;4.93;;;6.10;99.90;;;;;;5019004;28;20407;-52
2022/01/14 00:40:14;;;;;;;12.88;5.70;;;6.10;99.90;;;;;;5025778;28;20104;-53
2022/01/14 00:42:40;;;;;;;14.85;5.57;;;6.10;99.90;;;;;;5030479;28;20053;-52
2022/01/14 00:45:07;;;;;;;9.27;5.50;;;6.10;99.90;;;;;;5030117;28;20037;-54
2022/01/14 00:47:37;;;;;;;20.52;6.45;;;6.00;99.90;;;;;;5029730;28;20049;-51
2022/01/14 00:50:08;;;;;;;16.40;5.97;;;6.00;99.90;;;;;;5011071;28;20105;-54
2022/01/14 00:52:34;;;;;;;14.02;6.60;;;6.10;99.90;;;;;;5012407;28;20511;-52
2022/01/14 00:54:59;;;;;;;14.05;5.80;;;6.00;99.90;;;;;;5026573;28;20547;-52
2022/01/14 00:59:14;;;;;;;12.57;6.03;;;6.00;99.90;;;;;;5011035;28;20109;-52
2022/01/14 01:00:16;;;;;;;14.45;6.20;;;6.00;99.90;;;;;;5019002;28;20053;-52
2022/01/14 01:02:41;;;;;;;16.75;7.35;;;6.00;99.90;;;;;;5020494;28;20029;-52
2022/01/14 01:05:08;;;;;;;11.48;5.55;;;6.00;99.90;;;;;;5012050;28;20021;-52
2022/01/14 01:07:33;;;;;;;10.98;6.07;;;6.00;99.90;;;;;;5025687;28;20018;-55
2022/01/14 01:09:59;;;;;;;17.08;5.97;;;6.00;99.90;;;;;;5018038;28;20025;-55
2022/01/14 01:12:37;;;;;;;14.70;5.57;;;6.00;99.90;;;;;;5030153;28;20100;-52
2022/01/14 01:15:09;;;;;;;19.05;6.45;;;6.00;99.90;;;;;;5029710;28;20030;-52
2022/01/14 01:17:35;;;;;;;15.88;5.82;;;5.90;99.90;;;;;;5010095;28;20037;-54
2022/01/14 01:20:17;;;;;;;16.20;6.47;;;5.90;99.90;;;;;;5026654;28;20109;-53
2022/01/14 01:22:48;;;;;;;16.80;6.30;;;5.90;99.90;;;;;;5016667;28;20025;-53
2022/01/14 01:25:17;;;;;;;18.48;7.03;;;5.90;99.90;;;;;;5030039;28;20103;-52
2022/01/14 01:27:45;;;;;;;16.73;6.25;;;5.90;99.90;;;;;;5030192;28;20029;-54
2022/01/14 01:33:06;;;;;;;16.90;5.97;;;5.90;99.90;;;;;;4990233;28;20411;-53
2022/01/14 01:35:33;;;;;;;8.02;5.70;;;5.90;99.90;;;;;;5015970;28;20038;-53
2022/01/14 01:37:59;;;;;;;13.60;5.68;;;5.90;99.90;;;;;;5010939;28;20037;-53
2022/01/14 01:40:27;;;;;;;18.15;5.63;;;5.90;99.90;;;;;;5025835;28;20646;-52
2022/01/14 01:42:55;;;;;;;14.55;5.47;;;5.90;99.90;;;;;;5029076;28;20029;-52
2022/01/14 01:45:24;;;;;;;10.43;5.18;;;5.90;99.90;;;;;;5029376;28;20022;-52
2022/01/14 01:47:50;;;;;;;15.75;5.40;;;5.90;99.90;;;;;;5028885;28;20519;-51
2022/01/14 01:50:20;;;;;;;16.67;6.22;;;5.90;99.90;;;;;;5029521;28;20169;-53
2022/01/14 01:52:46;;;;;;;15.27;7.45;;;5.90;99.90;;;;;;5029292;28;20183;-49
2022/01/14 01:55:14;;;;;;;12.57;5.85;;;5.90;99.90;;;;;;5025409;28;20155;-52
2022/01/14 01:57:42;;;;;;;12.57;5.25;;;5.90;99.90;;;;;;5008603;28;20026;-53
2022/01/14 02:00:13;;;;;;;15.48;7.07;;;5.90;99.90;;;;;;5009165;28;20040;-50
2022/01/14 02:02:39;;;;;;;14.07;4.75;;;6.00;99.90;;;;;;5023241;28;20124;-52
2022/01/14 02:05:06;;;;;;;16.88;4.43;;;5.90;99.90;;;;;;5010455;28;20066;-52
2022/01/14 02:07:32;;;;;;;16.05;4.43;;;6.00;99.90;;;;;;5020386;28;20438;-54
2022/01/14 02:09:59;;;;;;;15.32;4.93;;;5.90;99.90;;;;;;5034272;28;20021;-56
2022/01/14 02:12:25;;;;;;;18.05;5.55;;;6.00;99.90;;;;;;5029438;28;20399;-53
2022/01/14 02:14:55;;;;;;;11.82;5.13;;;6.00;99.90;;;;;;5018462;28;20105;-54
2022/01/14 02:23:03;;;;;;;11.10;4.18;;;5.90;99.90;;;;;;5027127;28;20028;-53
2022/01/14 02:25:30;;;;;;;14.50;4.45;;;5.90;99.90;;;;;;5011006;28;20416;-51
2022/01/14 02:28:06;;;;;;;16.63;3.83;;;5.90;99.90;;;;;;5030017;28;20045;-54
2022/01/14 02:30:34;;;;;;;12.43;4.38;;;6.00;99.90;;;;;;5032346;28;20048;-53
2022/01/14 02:32:59;;;;;;;10.43;3.95;;;5.90;99.90;;;;;;5013361;28;20034;-52
2022/01/14 02:35:25;;;;;;;15.10;4.53;;;5.90;99.90;;;;;;5015363;28;20030;-53
2022/01/14 02:37:52;;;;;;;6.88;3.80;;;5.90;99.90;;;;;;5033203;28;20094;-53
2022/01/14 02:40:18;;;;;;;6.43;3.65;;;6.00;99.90;;;;;;5031755;28;20052;-53
2022/01/14 02:42:47;;;;;;;11.57;4.32;;;6.00;99.90;;;;;;5032442;28;20060;-54
2022/01/14 02:45:13;;;;;;;10.18;3.85;;;6.00;99.90;;;;;;5032872;28;20029;-52
2022/01/14 02:47:38;;;;;;;15.63;4.80;;;6.00;99.90;;;;;;5013725;28;20167;-53
2022/01/14 02:50:08;;;;;;;8.60;4.75;;;6.00;99.90;;;;;;5012330;28;20117;-54
2022/01/14 02:52:43;;;;;;;15.38;4.65;;;5.90;99.90;;;;;;5013135;28;20033;-51
2022/01/14 02:55:18;;;;;;;13.35;3.47;;;6.00;99.90;;;;;;5013211;28;20026;-52
2022/01/14 02:57:52;;;;;;;15.93;4.60;;;6.00;99.90;;;;;;5013023;28;20029;-52
2022/01/14 03:00:26;;;;;;;11.02;4.13;;;6.00;99.90;;;;;;5013080;28;20492;-50
2022/01/14 03:02:52;;;;;;;12.48;4.40;;;6.00;99.90;;;;;;5021350;28;20075;-54
2022/01/14 03:05:21;;;;;;;12.70;4.70;;;5.90;99.90;;;;;;5031064;28;20033;-52
2022/01/14 03:07:48;;;;;;;10.45;5.03;;;6.00;99.90;;;;;;5029776;28;20030;-53
2022/01/14 03:10:16;;;;;;;9.65;3.33;;;6.00;99.90;;;;;;5012932;28;20038;-52
2022/01/14 03:12:43;;;;;;;19.77;4.90;;;6.00;99.90;;;;;;5013252;28;20052;-53
2022/01/14 03:15:10;;;;;;;11.13;4.22;;;6.00;99.90;;;;;;5012775;28;20030;-52
2022/01/14 03:17:35;;;;;;;12.00;4.63;;;5.90;99.90;;;;;;5029762;28;20539;-55
2022/01/14 03:20:02;;;;;;;16.17;5.00;;;5.90;99.90;;;;;;5013075;28;20033;-51
2022/01/14 03:22:33;;;;;;;13.23;3.92;;;6.00;99.90;;;;;;5014715;28;20507;-53
2022/01/14 03:27:43;;;;;;;13.32;4.80;;;6.00;99.90;;;;;;5031195;28;20040;-56
2022/01/14 03:30:09;;;;;;;8.75;4.03;;;6.00;99.90;;;;;;5029081;28;20021;-53
2022/01/14 03:32:34;;;;;;;13.63;4.47;;;5.90;99.90;;;;;;5013272;28;20113;-55
2022/01/14 03:35:00;;;;;;;16.88;4.85;;;6.00;99.90;;;;;;5024733;28;20082;-55
2022/01/14 03:37:28;;;;;;;9.75;3.95;;;6.00;99.90;;;;;;5032143;28;20047;-56
2022/01/14 03:39:54;;;;;;;9.43;3.95;;;6.00;99.90;;;;;;5027805;28;20032;-52
2022/01/14 03:42:19;;;;;;;13.68;4.80;;;6.10;99.90;;;;;;5032168;28;20034;-51
2022/01/14 03:44:45;;;;;;;17.95;4.25;;;6.10;99.90;;;;;;5026217;28;20108;-54
2022/01/14 03:47:10;;;;;;;13.73;4.45;;;6.10;99.90;;;;;;5012318;28;20123;-57
2022/01/14 03:49:36;;;;;;;7.72;3.10;;;6.10;99.90;;;;;;5012062;28;20037;-52
2022/01/14 03:52:02;;;;;;;13.23;4.63;;;6.10;99.90;;;;;;5012145;28;20049;-51
2022/01/14 03:54:29;;;;;;;12.57;4.22;;;6.10;99.90;;;;;;5019917;28;20116;-53
2022/01/14 03:56:54;;;;;;;10.00;3.88;;;6.10;99.90;;;;;;5032268;28;20044;-53
2022/01/14 03:59:20;;;;;;;10.32;4.88;;;6.10;99.90;;;;;;5031042;28;20034;-54
2022/01/14 04:01:46;;;;;;;8.40;4.13;;;6.10;99.90;;;;;;5029710;28;20025;-53
2022/01/14 04:04:11;;;;;;;12.52;4.63;;;6.10;99.90;;;;;;5015813;28;20282;-52
2022/01/14 04:06:37;;;;;;;24.27;4.57;;;6.10;99.90;;;;;;5013007;28;20400;-51
2022/01/14 04:09:03;;;;;;;15.13;4.65;;;6.10;99.90;;;;;;5011384;28;20462;-55
2022/01/14 04:11:30;;;;;;;13.38;4.03;;;6.20;99.90;;;;;;5012094;28;20073;-52
2022/01/14 04:14:06;;;;;;;14.70;4.88;;;6.10;99.90;;;;;;5019004;28;20030;-52
2022/01/14 04:16:31;;;;;;;16.30;4.32;;;6.10;99.90;;;;;;5031256;28;20499;-51
2022/01/14 04:18:57;;;;;;;11.43;4.78;;;6.10;99.90;;;;;;5030828;28;20042;-53
2022/01/14 04:21:23;;;;;;;9.85;4.40;;;6.10;99.90;;;;;;5031550;28;20450;-52
2022/01/14 04:23:48;;;;;;;14.52;5.60;;;6.20;99.90;;;;;;5028179;28;20121;-55
2022/01/14 04:26:15;;;;;;;14.10;5.20;;;6.20;99.90;;;;;;5022027;28;20029;-53
2022/01/14 04:28:40;;;;;;;11.18;4.03;;;6.10;99.90;;;;;;5031377;28;20029;-51
2022/01/14 04:31:07;;;;;;;13.32;4.10;;;6.10;99.90;;;;;;5029557;28;20503;-54
2022/01/14 04:33:34;;;;;;;12.32;4.95;;;6.20;99.90;;;;;;5033150;23;20514;-58
2022/01/14 04:36:01;;;;;;;10.07;3.65;;;6.20;99.90;;;;;;5009672;28;20479;-56
2022/01/14 04:38:28;;;;;;;11.68;4.60;;;6.10;99.90;;;;;;5010404;28;20381;-55
2022/01/14 04:40:55;;;;;;;10.30;4.35;;;6.20;99.90;;;;;;5010967;28;20029;-57
2022/01/14 04:43:21;;;;;;;20.55;5.00;;;6.10;99.90;;;;;;5005237;28;20100;-58
2022/01/14 04:48:26;;;;;;;14.68;3.70;;;6.10;99.90;;;;;;4991097;28;20034;-58
2022/01/14 04:50:53;;;;;;;9.10;4.07;;;6.20;99.90;;;;;;4990824;28;20069;-58
2022/01/14 04:53:20;;;;;;;14.68;3.55;;;6.10;99.90;;;;;;4991019;28;20355;-57
2022/01/14 04:55:46;;;;;;;8.68;3.75;;;6.10;99.90;;;;;;4991636;28;20109;-55
2022/01/14 04:58:12;;;;;;;10.00;4.25;;;6.20;99.90;;;;;;4990523;28;20463;-57
2022/01/14 05:00:39;;;;;;;9.25;3.53;;;6.20;99.90;;;;;;4990963;28;20549;-58
2022/01/14 05:03:05;;;;;;;14.90;4.68;;;6.20;99.90;;;;;;4991450;28;20027;-57
2022/01/14 05:05:34;;;;;;;11.32;3.45;;;6.10;99.90;;;;;;4990962;28;20027;-56
2022/01/14 05:08:00;;;;;;;15.43;4.15;;;6.10;99.90;;;;;;4990276;28;20247;-56
2022/01/14 05:10:36;;;;;;;12.93;4.15;;;6.10;99.90;;;;;;4991576;28;20093;-55
2022/01/14 05:13:02;;;;;;;;;;;6.20;99.90;;;;;;4991623;28;20080;-57
2022/01/14 05:15:28;;;;;;;11.32;3.20;;;6.10;99.90;;;;;;4990381;28;20382;-58
2022/01/14 05:17:54;;;;;;;12.52;3.80;;;6.20;99.90;;;;;;4990501;28;20047;-58
2022/01/14 05:20:20;;;;;;;16.40;4.22;;;6.20;99.90;;;;;;4990292;28;20029;-56
2022/01/14 05:22:47;;;;;;;9.23;3.05;;;6.10;99.90;;;;;;4990621;28;20038;-57
2022/01/14 05:25:14;;;;;;;16.35;3.60;;;6.10;99.90;;;;;;4990717;28;20045;-58
2022/01/14 05:27:41;;;;;;;10.82;3.60;;;6.10;99.90;;;;;;4990279;28;20393;-54
2022/01/14 05:30:09;;;;;;;14.32;3.83;;;6.10;99.90;;;;;;4990309;28;20034;-54
2022/01/14 05:32:35;;;;;;;17.33;3.67;;;6.10;99.90;;;;;;4990720;28;20030;-54
2022/01/14 05:35:02;;;;;;;14.07;3.90;;;6.10;99.90;;;;;;4990242;28;20038;-57
2022/01/14 05:37:27;;;;;;;16.58;3.67;;;6.10;99.90;;;;;;4990252;28;20348;-60
2022/01/14 05:39:53;;;;;;;14.30;4.15;;;6.10;99.90;;;;;;4990312;28;20034;-55
2022/01/14 05:42:20;;;;;;;10.27;3.58;;;6.00;99.90;;;;;;4990811;28;20508;-56
2022/01/14 05:44:45;;;;;;;9.98;3.83;;;6.00;99.90;;;;;;4973138;28;20388;-55
2022/01/14 05:47:11;;;;;;;11.35;3.55;;;6.00;99.90;;;;;;4990282;28;20030;-58
2022/01/14 05:49:37;;;;;;;11.45;3.65;;;6.10;99.90;;;;;;4990340;28;20117;-55
2022/01/14 05:52:02;;;;;;;12.25;3.50;;;6.00;99.90;;;;;;4990262;28;20057;-56
2022/01/14 05:54:28;;;;;;;18.38;4.38;;;6.00;99.90;;;;;;4972585;28;20400;-56
2022/01/14 05:56:54;;;;;;;11.93;4.05;;;6.00;99.90;;;;;;4992574;28;20034;-58
2022/01/14 05:59:19;;;;;;;10.73;3.55;;;6.00;99.90;;;;;;4990263;28;20404;-58
2022/01/14 06:01:45;;;;;;;11.50;4.10;;;6.00;99.90;;;;;;4989573;28;20062;-51
2022/01/14 06:04:13;;;;;;;9.27;2.72;;;6.00;99.90;;;;;;4989479;28;20026;-56
2022/01/14 06:06:39;;;;;;;12.27;3.40;;;6.00;99.90;;;;;;4989530;28;20026;-56
2022/01/14 06:09:05;;;;;;;8.80;3.60;;;6.00;99.90;;;;;;4989472;28;20178;-54
2022/01/14 06:11:31;;;;;;;17.55;4.45;;;6.00;99.90;;;;;;4989621;28;20122;-57
2022/01/14 06:13:57;;;;;;;16.08;3.47;;;5.90;99.90;;;;;;4989371;28;20120;-53
2022/01/14 06:16:23;;;;;;;14.10;3.20;;;6.00;99.90;;;;;;4989984;28;20110;-52
2022/01/14 06:18:49;;;;;;;10.75;4.03;;;5.90;99.90;;;;;;4989965;28;20050;-57
2022/01/14 06:21:15;;;;;;;5.82;2.97;;;5.90;99.90;;;;;;4989886;28;20035;-55
2022/01/14 06:23:41;;;;;;;14.82;4.28;;;5.90;99.90;;;;;;4989748;28;20034;-54
2022/01/14 06:26:07;;;;;;;10.20;3.65;;;6.00;99.90;;;;;;4989597;28;20030;-57
2022/01/14 06:28:32;;;;;;;16.48;3.55;;;5.90;99.90;;;;;;4989593;28;20041;-56
2022/01/14 06:30:58;;;;;;;17.85;4.20;;;6.00;99.90;;;;;;4989865;28;20034;-55
2022/01/14 06:33:24;;;;;;;18.67;3.38;;;5.90;99.90;;;;;;4990299;28;20042;-58
2022/01/14 06:35:49;;;;;;;15.20;4.68;;;5.90;99.90;;;;;;4989740;28;20476;-57
2022/01/14 06:38:16;;;;;;;8.65;3.35;;;5.90;99.90;;;;;;4989099;28;20045;-56
2022/01/14 06:40:42;;;;;;;11.45;3.55;;;5.90;99.90;;;;;;4989612;28;20034;-55
2022/01/14 06:43:08;;;;;;;10.07;3.58;;;5.90;99.90;;;;;;4989521;28;20100;-56
2022/01/14 06:45:33;;;;;;;15.60;3.88;;;5.90;99.90;;;;;;4989350;28;20469;-53
2022/01/14 06:48:01;;;;;;;11.48;4.25;;;5.90;99.90;;;;;;4988940;28;20034;-57
2022/01/14 06:50:27;;;;;;;15.77;3.17;;;5.90;99.90;;;;;;4989467;28;20042;-59
2022/01/14 06:52:52;;;;;;;14.98;3.22;;;5.90;99.90;;;;;;4989576;28;20030;-59
2022/01/14 06:55:21;;;;;;;9.57;3.50;;;5.90;99.90;;;;;;4989498;28;20081;-56
2022/01/14 06:57:46;;;;;;;11.18;3.45;;;5.90;99.90;;;;;;4989405;28;20344;-55
2022/01/14 07:00:14;;;;;;;13.98;4.10;;;5.90;99.90;;;;;;4989727;28;20121;-57
2022/01/14 07:02:40;;;;;;;10.38;3.08;;;5.90;99.90;;;;;;4989852;28;20026;-55
2022/01/14 07:05:08;;;;;;;16.30;3.35;;;5.90;99.90;;;;;;4989476;28;20081;-55
2022/01/14 07:07:36;;;;;;;13.85;3.47;;;5.90;99.90;;;;;;4989066;28;20037;-58
2022/01/14 07:10:03;;;;;;;8.70;3.15;;;5.90;99.90;;;;;;4989674;28;20030;-55
2022/01/14 07:12:32;;;;;;;13.65;3.85;;;5.90;99.90;;;;;;4989094;28;20034;-59
2022/01/14 07:14:59;;;;;;;12.27;3.33;;;5.90;99.90;;;;;;4990654;28;20049;-56
2022/01/14 07:17:25;;;;;;;12.13;3.38;;;5.90;99.90;;;;;;4993319;28;20099;-58
2022/01/14 07:19:55;;;;;;;14.75;4.25;;;5.90;99.90;;;;;;4992615;28;20065;-59
2022/01/14 07:22:22;;;;;;;18.88;4.82;;;5.90;99.90;;;;;;4993079;28;20030;-54
2022/01/14 07:24:48;;;;;;;9.90;3.25;;;5.90;99.90;;;;;;4992883;28;20378;-53
2022/01/14 07:27:14;;;;;;;11.15;3.38;;;5.90;99.90;;;;;;4993123;28;20035;-55
2022/01/14 07:29:40;;;;;;;16.30;4.13;;;6.00;99.90;;;;;;4992259;28;20034;-57
2022/01/14 07:32:06;;;;;;;13.32;4.35;;;5.90;99.90;;;;;;4975615;28;20038;-58
2022/01/14 07:34:32;;;;;;;14.27;4.72;;;5.90;99.90;;;;;;4992529;28;20042;-56
2022/01/14 07:36:58;;;;;;;21.77;4.82;;;6.00;99.90;;;;;;4992862;28;20558;-54
2022/01/14 07:39:24;;;;;;;18.80;4.65;;;6.00;99.90;;;;;;4992490;28;20145;-55
2022/01/14 07:41:53;;;;;;;12.57;4.28;;;6.00;99.90;;;;;;4992707;28;20034;-59
2022/01/14 07:44:20;;;;;;;13.52;4.53;;;6.00;99.90;;;;;;4991767;28;20038;-59
2022/01/14 07:46:47;;;;;;;19.13;4.22;;;6.00;99.90;;;;;;4992395;28;20023;-55
2022/01/14 07:49:13;;;;;;;14.23;4.18;;;6.00;99.90;;;;;;4974801;28;20125;-56
2022/01/14 07:51:39;;;;;;;18.23;4.55;;;6.00;99.90;;;;;;4992278;28;20501;-59
2022/01/14 07:54:05;;;;;;;16.52;4.20;;;6.00;99.90;;;;;;4992565;28;20030;-54
2022/01/14 07:56:37;;;;;;;21.15;4.40;;;6.00;99.90;;;;;;4992570;28;20464;-60
2022/01/14 07:59:06;;;;;;;17.05;3.65;;;6.00;99.90;;;;;;4981498;28;20081;-57
2022/01/14 08:01:33;;;;;;;17.80;4.55;;;6.00;99.90;;;;;;4992638;28;20042;-56
2022/01/14 08:04:00;;;;;;;10.30;3.35;;;6.00;99.90;;;;;;4991894;28;20033;-50
2022/01/14 08:06:26;;;;;;;18.30;4.45;;;6.00;99.90;;;;;;4992348;28;20491;-57
2022/01/14 08:08:52;;;;;;;20.25;4.30;;;6.00;99.90;;;;;;4991657;28;20045;-52
2022/01/14 08:11:20;;;;;;;13.75;4.45;;;6.00;99.90;;;;;;4992123;28;20038;-55
2022/01/14 08:13:46;;;;;;;13.40;3.95;;;6.00;99.90;;;;;;4991917;28;20112;-55
2022/01/14 08:16:11;;;;;;;15.85;4.15;;;6.00;99.90;;;;;;4992396;28;20086;-55
2022/01/14 08:18:37;;;;;;;17.77;3.58;;;6.00;99.90;;;;;;4991835;28;20054;-59
2022/01/14 08:21:04;;;;;;;18.88;4.78;;;6.00;99.90;;;;;;4992290;28;20027;-56
2022/01/14 08:23:30;;;;;;;15.00;3.83;;;6.00;99.90;;;;;;4992154;28;20026;-54
2022/01/14 08:25:57;;;;;;;12.65;3.78;;;6.00;99.90;;;;;;4991534;28;20053;-56
2022/01/14 08:28:24;;;;;;;16.85;4.40;;;6.00;99.90;;;;;;4991223;28;20035;-57
2022/01/14 08:30:49;;;;;;;13.35;4.03;;;6.00;99.90;;;;;;4991863;28;20034;-58
2022/01/14 08:33:15;;;;;;;12.50;2.92;;;6.00;99.90;;;;;;4991616;28;20038;-58
2022/01/14 08:35:40;;;;;;;20.05;3.97;;;6.00;99.90;;;;;;4991167;28;20064;-57
2022/01/14 08:38:06;;;;;;;17.88;3.90;;;6.00;99.90;;;;;;4991368;28;20034;-57
2022/01/14 08:40:33;;;;;;;15.60;3.80;;;6.00;99.90;;;;;;4991551;28;20058;-56
2022/01/14 08:42:59;;;;;;;15.18;3.70;;;6.00;99.90;;;;;;4991705;28;20023;-56
2022/01/14 08:45:24;;;;;;;15.10;3.78;;;6.10;99.90;;;;;;4991557;28;20417;-58
2022/01/14 08:47:52;;;;;;;16.83;4.07;;;6.00;99.90;;;;;;4991591;28;20061;-53
2022/01/14 08:50:37;;;;;;;11.82;3.58;;;6.00;99.90;;;;;;4991266;28;20390;-52
2022/01/14 08:53:09;;;;;;;18.27;4.28;;;6.00;99.90;;;;;;4991077;28;20491;-56
2022/01/14 08:55:36;;;;;;;15.50;4.20;;;6.00;99.90;;;;;;4991652;28;20488;-57
2022/01/14 08:58:03;;;;;;;13.45;4.03;;;6.10;99.90;;;;;;4990784;28;20058;-56
2022/01/14 09:00:29;;;;;;;18.90;4.43;;;6.00;99.90;;;;;;4991236;28;20042;-53
2022/01/14 09:02:55;;;;;;;16.25;4.22;;;6.10;99.90;;;;;;4991503;28;20070;-55
2022/01/14 09:05:23;;;;;;;12.35;4.45;;;6.00;99.90;;;;;;4992740;28;20022;-57
2022/01/14 09:07:51;;;;;;;14.85;4.03;;;6.00;99.90;;;;;;4993476;28;20061;-56
2022/01/14 09:10:19;;;;;;;11.20;3.40;;;6.00;99.90;;;;;;4994686;28;20038;-54
2022/01/14 09:12:45;;;;;;;17.55;3.70;;;6.00;99.90;;;;;;4993784;28;20026;-56
2022/01/14 09:15:12;;;;;;;13.35;3.35;;;6.00;99.90;;;;;;4992994;28;20109;-57
2022/01/14 09:17:40;;;;;;;9.25;4.03;;;6.00;99.90;;;;;;4994291;28;20041;-59
2022/01/14 09:20:07;;;;;;;12.85;3.40;;;6.00;99.90;;;;;;4992721;28;20481;-59
2022/01/14 09:22:35;;;;;;;14.65;3.75;;;6.00;99.90;;;;;;4994739;28;20034;-54
2022/01/14 09:25:01;;;;;;;12.30;4.00;;;6.00;99.90;;;;;;4992885;28;20050;-55
2022/01/14 09:27:30;;;;;;;17.00;4.53;;;6.00;99.90;;;;;;4994529;28;20104;-57
2022/01/14 09:29:56;;;;;;;15.85;4.35;;;6.00;99.90;;;;;;4975571;28;20035;-56
2022/01/14 09:32:22;;;;;;;8.75;3.78;;;6.00;99.90;;;;;;4994548;28;20153;-56
2022/01/14 09:34:48;;;;;;;18.17;4.75;;;6.00;99.90;;;;;;4992343;28;20044;-55
2022/01/14 09:37:13;;;;;;;13.13;4.75;;;6.00;99.90;;;;;;4991974;28;20476;-56
2022/01/14 09:39:45;;;;;;;13.82;5.20;;;6.00;99.90;;;;;;4994073;28;20451;-54
2022/01/14 09:42:13;;;;;;;13.88;5.18;;;6.10;99.90;;;;;;4993067;28;20384;-57
2022/01/14 09:44:39;;;;;;;14.15;4.07;;;6.10;99.90;;;;;;4991290;28;20465;-58
2022/01/14 09:47:05;;;;;;;16.65;4.20;;;6.10;99.90;;;;;;4992758;28;20105;-58
2022/01/14 09:49:31;;;;;;;17.63;4.65;;;6.10;99.90;;;;;;4993860;28;20042;-55
2022/01/14 09:51:56;;;;;;;10.93;4.22;;;6.10;99.90;;;;;;4992510;28;20026;-54
2022/01/14 09:54:22;;;;;;;17.85;4.60;;;6.10;99.90;;;;;;4992009;28;20030;-55
2022/01/14 09:56:48;;;;;;;11.40;4.53;;;6.10;99.90;;;;;;4993098;28;20116;-56
2022/01/14 09:59:13;;;;;;;12.45;4.35;;;6.00;99.90;;;;;;4992161;28;20477;-58
2022/01/14 10:01:46;;;;;;;16.27;5.28;;;6.10;99.90;;;;;;4996397;28;20373;-58
2022/01/14 10:04:18;;;;;;;17.05;5.65;;;6.10;99.90;;;;;;4999761;28;20029;-59
2022/01/14 10:06:54;;;;;;;18.08;4.90;;;6.10;99.90;;;;;;5002104;28;20041;-58
2022/01/14 10:09:39;;;;;;;11.80;4.53;;;6.10;99.90;;;;;;4990382;28;20037;-53
2022/01/14 10:12:16;;;;;;;16.48;4.03;;;6.20;99.90;;;;;;4971000;28;20041;-56
2022/01/14 10:14:43;;;;;;;16.55;5.13;;;6.20;99.90;;;;;;4967277;28;20420;-59
2022/01/14 10:17:11;;;;;;;13.20;4.40;;;6.20;99.90;;;;;;4990612;28;20041;-56
2022/01/14 10:19:43;;;;;;;18.40;4.30;;;6.20;99.90;;;;;;4990053;28;20104;-56
2022/01/14 10:22:32;;;;;;;10.65;4.13;;;6.30;99.90;;;;;;4989451;28;20030;-55
2022/01/14 10:25:06;;;;;;;12.27;4.50;;;6.30;99.90;;;;;;4989865;28;20117;-59
2022/01/14 10:27:39;;;;;;;13.30;4.80;;;6.30;99.90;;;;;;4989401;28;20046;-57
2022/01/14 10:30:13;;;;;;;14.90;5.43;;;6.30;99.90;;;;;;4989831;28;20030;-55
2022/01/14 10:32:41;;;;;;;10.23;4.60;;;6.30;99.90;;;;;;4989994;28;20481;-57
2022/01/14 10:35:13;;;;;;;11.70;4.75;;;6.30;99.90;;;;;;5025382;23;20050;-54
2022/01/14 10:37:38;;;;;;;9.20;4.80;;;6.30;99.90;;;;;;5008453;28;20035;-53
2022/01/14 10:40:13;;;;;;;17.05;5.07;;;6.30;99.90;;;;;;5009479;28;20392;-53
2022/01/14 10:42:40;;;;;;;15.27;5.30;;;6.30;99.90;;;;;;5009160;28;20041;-52
2022/01/14 10:45:22;;;;;;;21.15;5.15;;;6.30;99.90;;;;;;5009508;28;20272;-52
2022/01/14 10:47:52;;;;;;;11.52;4.43;;;6.30;99.90;;;;;;5008925;28;20041;-51
2022/01/14 10:50:18;;;;;;;10.52;4.05;;;6.30;99.90;;;;;;5012687;28;20026;-51
2022/01/14 10:52:49;;;;;;;10.85;4.35;;;6.30;99.90;;;;;;5013580;28;20026;-51
2022/01/14 10:55:32;;;;;;;10.05;4.20;;;6.30;99.90;;;;;;5012650;28;20026;-52
2022/01/14 10:57:58;;;;;;;7.63;4.78;;;6.30;99.90;;;;;;5013030;28;20038;-51
2022/01/14 11:00:28;;;;;;;11.32;5.03;;;6.40;99.90;;;;;;5010903;28;20578;-54
2022/01/14 11:02:53;;;;;;;16.50;8.80;;;6.40;99.90;;;;;;5013101;28;20037;-53
2022/01/14 11:05:22;;;;;;;14.90;8.68;;;6.40;99.90;;;;;;5013124;28;20373;-54
2022/01/14 11:07:52;;;;;;;6.68;3.30;;;6.40;99.90;;;;;;5012807;28;20121;-52
2022/01/14 11:10:19;;;;;;;7.40;3.45;;;6.50;99.90;;;;;;5011000;28;20668;-50
2022/01/14 11:12:45;;;;;;;7.53;3.65;;;6.40;99.90;;;;;;5012332;28;20450;-52
2022/01/14 11:15:14;;;;;;;5.25;3.47;;;6.40;99.90;;;;;;5012409;28;20030;-52
2022/01/14 11:17:42;;;;;;;5.43;3.08;;;6.40;99.90;;;;;;4994999;28;20034;-51
2022/01/14 11:20:10;;;;;;;7.97;3.58;;;6.40;99.90;;;;;;5011005;28;20030;-53
2022/01/14 11:25:21;;;;;;;13.88;3.17;;;6.50;99.90;;;;;;4994632;28;20045;-53
2022/01/14 11:27:51;;;;;;;5.43;2.90;;;6.50;99.90;;;;;;4994066;28;20480;-51
2022/01/14 11:30:17;;;;;;;14.15;3.90;;;6.50;99.90;;;;;;4993106;28;20407;-51
2022/01/14 11:32:53;;;;;;;6.63;3.25;;;6.50;99.90;;;;;;4992585;28;20026;-54
2022/01/14 11:35:24;;;;;;;5.80;3.10;;;6.50;99.90;;;;;;4992696;28;20497;-51
2022/01/14 11:37:53;;;;;;;5.32;2.88;;;6.60;99.90;;;;;;4998926;28;20040;-52
2022/01/14 11:40:20;;;;;;;6.57;3.13;;;6.60;99.90;;;;;;5012321;28;20032;-51
2022/01/14 11:42:50;;;;;;;5.20;3.05;;;6.60;99.90;;;;;;5005619;28;20524;-51
2022/01/14 11:45:18;;;;;;;5.68;2.60;;;6.60;99.90;;;;;;4992626;28;20026;-52
2022/01/14 11:47:45;;;;;;;5.65;2.70;;;6.60;99.90;;;;;;4992066;28;20093;-51
2022/01/14 11:50:21;;;;;;;7.03;3.30;;;6.70;99.90;;;;;;4992283;28;20061;-52
2022/01/14 11:52:48;;;;;;;8.15;2.67;;;6.70;99.90;;;;;;4992542;28;20037;-51
2022/01/14 11:55:23;;;;;;;5.32;2.92;;;6.60;99.90;;;;;;4992342;28;20130;-52
2022/01/14 11:58:06;;;;;;;6.80;2.92;;;6.70;99.90;;;;;;4991712;28;20022;-53
2022/01/14 12:00:39;;;;;;;5.03;2.45;;;6.70;99.90;;;;;;4991042;28;20026;-53
2022/01/14 12:03:10;;;;;;;5.75;2.47;;;6.70;99.90;;;;;;4991844;28;20026;-52
2022/01/14 12:05:38;;;;;;;5.28;2.50;;;6.70;99.90;;;;;;4992183;28;20050;-51
2022/01/14 12:08:10;;;;;;;2.70;2.38;;;6.80;99.90;;;;;;4992135;28;20105;-55
2022/01/14 12:10:46;;;;;;;7.80;2.85;;;6.80;99.90;;;;;;4992095;28;20519;-54
2022/01/14 12:13:43;;;;;;;6.93;2.75;;;6.80;99.90;;;;;;4992647;28;20030;-52
2022/01/14 12:16:36;;;;;;;10.20;3.20;;;6.90;99.90;;;;;;4991519;28;20038;-51
2022/01/14 12:19:02;;;;;;;5.28;2.60;;;6.80;99.90;;;;;;4991983;28;20409;-53
2022/01/14 12:21:50;;;;;;;5.55;2.95;;;6.80;99.90;;;;;;4991792;28;20034;-52
2022/01/14 12:24:18;;;;;;;9.98;4.07;;;6.90;99.90;;;;;;4991214;28;20444;-50
2022/01/14 12:27:08;;;;;;;8.80;3.88;;;6.90;99.90;;;;;;4992256;28;20560;-54
2022/01/14 12:29:43;;;;;;;5.43;2.85;;;6.90;99.90;;;;;;4991436;28;20032;-52
2022/01/14 12:32:12;;;;;;;4.53;2.53;;;7.00;99.90;;;;;;4991992;28;20066;-50
2022/01/14 12:35:05;;;;;;;4.35;2.28;;;7.00;99.90;;;;;;4991707;28;20509;-55
2022/01/14 12:37:40;;;;;;;7.50;2.67;;;7.10;99.90;;;;;;4993952;28;20126;-54
2022/01/14 12:40:24;;;;;;;6.85;3.55;;;7.10;99.90;;;;;;4994194;28;20026;-52
2022/01/14 12:42:59;;;;;;;9.73;3.03;;;7.10;99.90;;;;;;4989417;28;20581;-50
2022/01/14 12:45:37;;;;;;;7.72;3.15;;;7.20;99.90;;;;;;4991511;28;20504;-54
2022/01/14 12:48:19;;;;;;;6.90;3.33;;;7.20;99.90;;;;;;4991255;28;20068;-51
2022/01/14 12:50:46;;;;;;;5.95;3.40;;;7.20;99.90;;;;;;4991757;28;20030;-55
2022/01/14 12:53:19;;;;;;;5.00;2.75;;;7.30;99.90;;;;;;4991203;28;20029;-53
2022/01/14 12:55:45;;;;;;;3.75;2.55;;;7.30;99.90;;;;;;5001087;28;20125;-52
2022/01/14 12:58:12;;;;;;;7.35;3.80;;;7.30;99.90;;;;;;5010457;28;20022;-53
2022/01/14 13:00:39;;;;;;;4.13;2.75;;;7.30;99.90;;;;;;5009536;28;20037;-51
2022/01/14 13:03:15;;;;;;;5.45;2.83;;;7.30;99.90;;;;;;5010957;28;20018;-50
2022/01/14 13:05:41;;;;;;;5.13;3.20;;;7.30;99.90;;;;;;5000945;28;20030;-51
2022/01/14 13:08:07;;;;;;;9.60;3.42;;;7.30;99.90;;;;;;4990246;28;20050;-50
2022/01/14 13:10:33;;;;;;;7.65;3.88;;;7.30;99.90;;;;;;4992623;28;20038;-51
2022/01/14 13:13:01;;;;;;;5.90;3.45;;;7.30;99.90;;;;;;4991290;28;20034;-51
2022/01/14 13:15:27;;;;;;;6.35;3.90;;;7.30;99.90;;;;;;4998734;28;20044;-51
2022/01/14 13:17:58;;;;;;;9.02;3.80;;;7.40;99.90;;;;;;5010676;28;20037;-52
2022/01/14 13:20:24;;;;;;;9.23;3.63;;;7.40;99.90;;;;;;5010578;28;20034;-50